sensor_id;sensor_type;location;lat;lon;timestamp;temperature;humidity
41324;DHT22;27073;51.128;4.220;2023-04-24T00:00:55;10.00;99.90
41324;DHT22;27073;51.128;4.220;2023-04-24T00:03:26;9.90;99.90
41324;DHT22;27073;51.128;4.220;2023-04-24T00:05:54;10.00;99.90
41324;DHT22;27073;51.128;4.220;2023-04-24T00:08:20;10.00;99.90
41324;DHT22;27073;51.128;4.220;2023-04-24T00:10:46;9.90;99.90
41324;DHT22;27073;51.128;4.220;2023-04-24T00:13:12;9.90;99.90
41324;DHT22;27073;51.128;4.220;2023-04-24T00:15:38;9.90;99.90
41324;DHT22;27073;51.128;4.220;2023-04-24T00:18:03;9.80;99.90
41324;DHT22;27073;51.128;4.220;2023-04-24T00:20:29;9.80;99.90
41324;DHT22;27073;51.128;4.220;2023-04-24T00:22:55;9.90;99.90
41324;DHT22;27073;51.128;4.220;2023-04-24T00:25:21;10.00;99.90
41324;DHT22;27073;51.128;4.220;2023-04-24T00:27:47;10.00;99.90
41324;DHT22;27073;51.128;4.220;2023-04-24T00:30:13;9.90;99.90
41324;DHT22;27073;51.128;4.220;2023-04-24T00:32:38;10.00;99.90
41324;DHT22;27073;51.128;4.220;2023-04-24T00:35:05;9.90;99.90
41324;DHT22;27073;51.128;4.220;2023-04-24T00:37:31;9.80;99.90
41324;DHT22;27073;51.128;4.220;2023-04-24T00:39:57;9.80;99.90
41324;DHT22;27073;51.128;4.220;2023-04-24T00:42:24;9.80;99.90
41324;DHT22;27073;51.128;4.220;2023-04-24T00:44:50;9.80;99.90
41324;DHT22;27073;51.128;4.220;2023-04-24T00:47:16;9.80;99.90
41324;DHT22;27073;51.128;4.220;2023-04-24T00:49:42;9.90;99.90
41324;DHT22;27073;51.128;4.220;2023-04-24T00:52:08;9.90;99.90
41324;DHT22;27073;51.128;4.220;2023-04-24T00:54:35;9.80;99.90
41324;DHT22;27073;51.128;4.220;2023-04-24T00:57:02;9.80;99.90
41324;DHT22;27073;51.128;4.220;2023-04-24T00:59:28;9.80;99.90
41324;DHT22;27073;51.128;4.220;2023-04-24T01:01:55;9.80;99.90
41324;DHT22;27073;51.128;4.220;2023-04-24T01:04:21;9.70;99.90
41324;DHT22;27073;51.128;4.220;2023-04-24T01:06:48;9.70;99.90
41324;DHT22;27073;51.128;4.220;2023-04-24T01:09:16;9.80;99.90
41324;DHT22;27073;51.128;4.220;2023-04-24T01:11:43;9.80;99.90
41324;DHT22;27073;51.128;4.220;2023-04-24T01:14:11;9.80;99.90
41324;DHT22;27073;51.128;4.220;2023-04-24T01:16:37;9.80;99.90
41324;DHT22;27073;51.128;4.220;2023-04-24T01:19:05;9.80;99.90
41324;DHT22;27073;51.128;4.220;2023-04-24T01:21:34;9.80;99.90
41324;DHT22;27073;51.128;4.220;2023-04-24T01:24:02;9.80;99.90
41324;DHT22;27073;51.128;4.220;2023-04-24T01:26:28;9.90;99.90
41324;DHT22;27073;51.128;4.220;2023-04-24T01:28:53;9.80;99.90
41324;DHT22;27073;51.128;4.220;2023-04-24T01:31:20;9.80;99.90
41324;DHT22;27073;51.128;4.220;2023-04-24T01:33:45;9.70;99.90
41324;DHT22;27073;51.128;4.220;2023-04-24T01:36:12;9.80;99.90
41324;DHT22;27073;51.128;4.220;2023-04-24T01:38:38;9.80;99.90
41324;DHT22;27073;51.128;4.220;2023-04-24T01:41:04;9.80;99.90
41324;DHT22;27073;51.128;4.220;2023-04-24T01:43:30;9.80;99.90
41324;DHT22;27073;51.128;4.220;2023-04-24T01:45:57;9.90;99.90
41324;DHT22;27073;51.128;4.220;2023-04-24T01:48:23;9.90;99.90
41324;DHT22;27073;51.128;4.220;2023-04-24T01:50:49;9.90;99.90
41324;DHT22;27073;51.128;4.220;2023-04-24T01:53:15;9.80;99.90
41324;DHT22;27073;51.128;4.220;2023-04-24T01:55:41;9.80;99.90
41324;DHT22;27073;51.128;4.220;2023-04-24T01:58:07;9.80;99.90
41324;DHT22;27073;51.128;4.220;2023-04-24T02:00:33;9.70;99.90
41324;DHT22;27073;51.128;4.220;2023-04-24T02:02:58;9.60;99.90
41324;DHT22;27073;51.128;4.220;2023-04-24T02:05:26;9.60;99.90
41324;DHT22;27073;51.128;4.220;2023-04-24T02:07:51;9.50;99.90
41324;DHT22;27073;51.128;4.220;2023-04-24T02:10:17;9.50;99.90
41324;DHT22;27073;51.128;4.220;2023-04-24T02:12:43;9.40;99.90
41324;DHT22;27073;51.128;4.220;2023-04-24T02:15:09;9.40;99.90
41324;DHT22;27073;51.128;4.220;2023-04-24T02:17:36;9.40;99.90
41324;DHT22;27073;51.128;4.220;2023-04-24T02:20:04;9.30;99.90
41324;DHT22;27073;51.128;4.220;2023-04-24T02:22:31;9.20;99.90
41324;DHT22;27073;51.128;4.220;2023-04-24T02:24:56;9.20;99.90
41324;DHT22;27073;51.128;4.220;2023-04-24T02:27:22;9.10;99.90
41324;DHT22;27073;51.128;4.220;2023-04-24T02:29:48;9.00;99.90
41324;DHT22;27073;51.128;4.220;2023-04-24T02:32:13;8.90;99.90
41324;DHT22;27073;51.128;4.220;2023-04-24T02:34:42;8.90;99.90
41324;DHT22;27073;51.128;4.220;2023-04-24T02:37:08;8.90;99.90
41324;DHT22;27073;51.128;4.220;2023-04-24T02:39:35;9.00;99.90
41324;DHT22;27073;51.128;4.220;2023-04-24T02:42:01;8.90;99.90
41324;DHT22;27073;51.128;4.220;2023-04-24T02:44:27;9.00;99.90
41324;DHT22;27073;51.128;4.220;2023-04-24T02:46:52;8.90;99.90
41324;DHT22;27073;51.128;4.220;2023-04-24T02:49:18;8.90;99.90
41324;DHT22;27073;51.128;4.220;2023-04-24T02:51:44;8.80;99.90
41324;DHT22;27073;51.128;4.220;2023-04-24T02:54:10;8.80;99.90
41324;DHT22;27073;51.128;4.220;2023-04-24T02:56:36;8.80;99.90
41324;DHT22;27073;51.128;4.220;2023-04-24T02:59:03;8.80;99.90
41324;DHT22;27073;51.128;4.220;2023-04-24T03:01:29;8.80;99.90
41324;DHT22;27073;51.128;4.220;2023-04-24T03:03:56;8.90;99.90
41324;DHT22;27073;51.128;4.220;2023-04-24T03:06:21;8.90;99.90
41324;DHT22;27073;51.128;4.220;2023-04-24T03:08:47;8.80;99.90
41324;DHT22;27073;51.128;4.220;2023-04-24T03:11:14;8.90;99.90
41324;DHT22;27073;51.128;4.220;2023-04-24T03:13:41;8.90;99.90
41324;DHT22;27073;51.128;4.220;2023-04-24T03:16:06;8.90;99.90
41324;DHT22;27073;51.128;4.220;2023-04-24T03:18:32;8.90;99.90
41324;DHT22;27073;51.128;4.220;2023-04-24T03:20:58;8.90;99.90
41324;DHT22;27073;51.128;4.220;2023-04-24T03:23:24;8.90;99.90
41324;DHT22;27073;51.128;4.220;2023-04-24T03:25:50;9.00;99.90
41324;DHT22;27073;51.128;4.220;2023-04-24T03:28:18;8.90;99.90
41324;DHT22;27073;51.128;4.220;2023-04-24T03:30:51;8.80;99.90
41324;DHT22;27073;51.128;4.220;2023-04-24T03:33:18;8.90;99.90
41324;DHT22;27073;51.128;4.220;2023-04-24T03:35:55;8.90;99.90
41324;DHT22;27073;51.128;4.220;2023-04-24T03:38:21;9.00;99.90
41324;DHT22;27073;51.128;4.220;2023-04-24T03:41:00;8.90;99.90
41324;DHT22;27073;51.128;4.220;2023-04-24T03:43:42;8.90;99.90
41324;DHT22;27073;51.128;4.220;2023-04-24T03:46:09;8.90;99.90
41324;DHT22;27073;51.128;4.220;2023-04-24T03:48:39;8.90;99.90
41324;DHT22;27073;51.128;4.220;2023-04-24T03:51:06;9.00;99.90
41324;DHT22;27073;51.128;4.220;2023-04-24T03:53:34;9.00;99.90
41324;DHT22;27073;51.128;4.220;2023-04-24T03:56:00;8.90;99.90
41324;DHT22;27073;51.128;4.220;2023-04-24T03:58:26;8.90;99.90
41324;DHT22;27073;51.128;4.220;2023-04-24T04:00:54;8.80;99.90
41324;DHT22;27073;51.128;4.220;2023-04-24T04:03:41;8.80;99.90
41324;DHT22;27073;51.128;4.220;2023-04-24T04:06:07;8.80;99.90
41324;DHT22;27073;51.128;4.220;2023-04-24T04:08:33;8.80;99.90
41324;DHT22;27073;51.128;4.220;2023-04-24T04:10:59;8.80;99.90
41324;DHT22;27073;51.128;4.220;2023-04-24T04:13:24;8.70;99.90
41324;DHT22;27073;51.128;4.220;2023-04-24T04:15:50;8.70;99.90
41324;DHT22;27073;51.128;4.220;2023-04-24T04:18:16;8.70;99.90
41324;DHT22;27073;51.128;4.220;2023-04-24T04:20:42;8.70;99.90
41324;DHT22;27073;51.128;4.220;2023-04-24T04:23:10;8.60;99.90
41324;DHT22;27073;51.128;4.220;2023-04-24T04:25:50;8.60;99.90
41324;DHT22;27073;51.128;4.220;2023-04-24T04:28:19;8.60;99.90
41324;DHT22;27073;51.128;4.220;2023-04-24T04:30:46;8.50;99.90
41324;DHT22;27073;51.128;4.220;2023-04-24T04:33:13;8.50;99.90
41324;DHT22;27073;51.128;4.220;2023-04-24T04:35:40;8.50;99.90
41324;DHT22;27073;51.128;4.220;2023-04-24T04:38:06;8.50;99.90
41324;DHT22;27073;51.128;4.220;2023-04-24T04:40:44;8.50;99.90
41324;DHT22;27073;51.128;4.220;2023-04-24T04:43:11;8.50;99.90
41324;DHT22;27073;51.128;4.220;2023-04-24T04:45:44;8.50;99.90
41324;DHT22;27073;51.128;4.220;2023-04-24T04:48:28;8.50;99.90
41324;DHT22;27073;51.128;4.220;2023-04-24T04:50:58;8.60;99.90
41324;DHT22;27073;51.128;4.220;2023-04-24T04:53:25;8.60;99.90
41324;DHT22;27073;51.128;4.220;2023-04-24T04:55:52;8.60;99.90
41324;DHT22;27073;51.128;4.220;2023-04-24T04:58:19;8.60;99.90
41324;DHT22;27073;51.128;4.220;2023-04-24T05:00:47;8.60;99.90
41324;DHT22;27073;51.128;4.220;2023-04-24T05:03:24;8.60;99.90
41324;DHT22;27073;51.128;4.220;2023-04-24T05:05:57;8.50;99.90
41324;DHT22;27073;51.128;4.220;2023-04-24T05:08:24;8.50;99.90
41324;DHT22;27073;51.128;4.220;2023-04-24T05:10:49;8.50;99.90
41324;DHT22;27073;51.128;4.220;2023-04-24T05:13:15;8.60;99.90
41324;DHT22;27073;51.128;4.220;2023-04-24T05:15:41;8.50;99.90
41324;DHT22;27073;51.128;4.220;2023-04-24T05:18:07;8.50;99.90
41324;DHT22;27073;51.128;4.220;2023-04-24T05:20:33;8.50;99.90
41324;DHT22;27073;51.128;4.220;2023-04-24T05:22:59;8.50;99.90
41324;DHT22;27073;51.128;4.220;2023-04-24T05:25:26;8.50;99.90
41324;DHT22;27073;51.128;4.220;2023-04-24T05:27:59;8.50;99.90
41324;DHT22;27073;51.128;4.220;2023-04-24T05:30:25;8.50;99.90
41324;DHT22;27073;51.128;4.220;2023-04-24T05:32:50;8.50;99.90
41324;DHT22;27073;51.128;4.220;2023-04-24T05:35:16;8.50;99.90
41324;DHT22;27073;51.128;4.220;2023-04-24T05:37:42;8.60;99.90
41324;DHT22;27073;51.128;4.220;2023-04-24T05:40:09;8.50;99.90
41324;DHT22;27073;51.128;4.220;2023-04-24T05:42:35;8.40;99.90
41324;DHT22;27073;51.128;4.220;2023-04-24T05:45:01;8.40;99.90
41324;DHT22;27073;51.128;4.220;2023-04-24T05:47:27;8.50;99.90
41324;DHT22;27073;51.128;4.220;2023-04-24T05:49:53;8.50;99.90
41324;DHT22;27073;51.128;4.220;2023-04-24T05:52:19;8.50;99.90
41324;DHT22;27073;51.128;4.220;2023-04-24T05:54:47;8.60;99.90
41324;DHT22;27073;51.128;4.220;2023-04-24T05:57:17;8.70;99.90
41324;DHT22;27073;51.128;4.220;2023-04-24T05:59:50;8.70;99.90
41324;DHT22;27073;51.128;4.220;2023-04-24T06:02:17;8.60;99.90
41324;DHT22;27073;51.128;4.220;2023-04-24T06:04:44;8.60;99.90
41324;DHT22;27073;51.128;4.220;2023-04-24T06:07:13;8.60;99.90
41324;DHT22;27073;51.128;4.220;2023-04-24T06:09:40;8.70;99.90
41324;DHT22;27073;51.128;4.220;2023-04-24T06:12:06;8.70;99.90
41324;DHT22;27073;51.128;4.220;2023-04-24T06:14:46;8.60;99.90
41324;DHT22;27073;51.128;4.220;2023-04-24T06:17:22;8.60;99.90
41324;DHT22;27073;51.128;4.220;2023-04-24T06:19:49;8.70;99.90
41324;DHT22;27073;51.128;4.220;2023-04-24T06:22:15;8.70;99.90
41324;DHT22;27073;51.128;4.220;2023-04-24T06:24:41;8.70;99.90
41324;DHT22;27073;51.128;4.220;2023-04-24T06:27:06;8.70;99.90
41324;DHT22;27073;51.128;4.220;2023-04-24T06:29:33;8.70;99.90
41324;DHT22;27073;51.128;4.220;2023-04-24T06:31:59;8.70;99.90
41324;DHT22;27073;51.128;4.220;2023-04-24T06:34:25;8.60;99.90
41324;DHT22;27073;51.128;4.220;2023-04-24T06:36:51;8.70;99.90
41324;DHT22;27073;51.128;4.220;2023-04-24T06:39:17;8.70;99.90
41324;DHT22;27073;51.128;4.220;2023-04-24T06:41:42;8.70;99.90
41324;DHT22;27073;51.128;4.220;2023-04-24T06:44:17;8.70;99.90
41324;DHT22;27073;51.128;4.220;2023-04-24T06:46:43;8.70;99.90
41324;DHT22;27073;51.128;4.220;2023-04-24T06:49:09;8.70;99.90
41324;DHT22;27073;51.128;4.220;2023-04-24T06:51:35;8.80;99.90
41324;DHT22;27073;51.128;4.220;2023-04-24T06:54:01;8.80;99.90
41324;DHT22;27073;51.128;4.220;2023-04-24T06:56:27;8.90;99.90
41324;DHT22;27073;51.128;4.220;2023-04-24T06:58:54;8.80;99.90
41324;DHT22;27073;51.128;4.220;2023-04-24T07:01:20;8.70;99.90
41324;DHT22;27073;51.128;4.220;2023-04-24T07:03:46;8.80;99.90
41324;DHT22;27073;51.128;4.220;2023-04-24T07:06:12;8.80;99.90
41324;DHT22;27073;51.128;4.220;2023-04-24T07:08:38;8.80;99.90
41324;DHT22;27073;51.128;4.220;2023-04-24T07:11:04;8.80;99.90
41324;DHT22;27073;51.128;4.220;2023-04-24T07:13:30;8.80;99.90
41324;DHT22;27073;51.128;4.220;2023-04-24T07:15:56;8.70;99.90
41324;DHT22;27073;51.128;4.220;2023-04-24T07:18:22;8.70;99.90
41324;DHT22;27073;51.128;4.220;2023-04-24T07:20:48;8.70;99.90
41324;DHT22;27073;51.128;4.220;2023-04-24T07:23:16;8.80;99.90
41324;DHT22;27073;51.128;4.220;2023-04-24T07:25:42;8.90;99.90
41324;DHT22;27073;51.128;4.220;2023-04-24T07:28:08;9.00;99.90
41324;DHT22;27073;51.128;4.220;2023-04-24T07:30:33;9.00;99.90
41324;DHT22;27073;51.128;4.220;2023-04-24T07:32:59;9.20;99.90
41324;DHT22;27073;51.128;4.220;2023-04-24T07:35:28;9.10;99.90
41324;DHT22;27073;51.128;4.220;2023-04-24T07:37:54;9.10;99.90
41324;DHT22;27073;51.128;4.220;2023-04-24T07:40:20;9.20;99.90
41324;DHT22;27073;51.128;4.220;2023-04-24T07:42:46;9.20;99.90
41324;DHT22;27073;51.128;4.220;2023-04-24T07:45:14;9.10;99.90
41324;DHT22;27073;51.128;4.220;2023-04-24T07:47:42;9.10;99.90
41324;DHT22;27073;51.128;4.220;2023-04-24T07:50:09;9.10;99.90
41324;DHT22;27073;51.128;4.220;2023-04-24T07:52:36;9.20;99.90
41324;DHT22;27073;51.128;4.220;2023-04-24T07:55:02;9.10;99.90
41324;DHT22;27073;51.128;4.220;2023-04-24T07:57:28;9.10;99.90
41324;DHT22;27073;51.128;4.220;2023-04-24T07:59:54;9.10;99.90
41324;DHT22;27073;51.128;4.220;2023-04-24T08:02:20;9.10;99.90
41324;DHT22;27073;51.128;4.220;2023-04-24T08:04:47;9.10;99.90
41324;DHT22;27073;51.128;4.220;2023-04-24T08:07:12;9.10;99.90
41324;DHT22;27073;51.128;4.220;2023-04-24T08:09:38;9.20;99.90
41324;DHT22;27073;51.128;4.220;2023-04-24T08:12:04;9.30;99.90
41324;DHT22;27073;51.128;4.220;2023-04-24T08:14:30;9.50;99.90
41324;DHT22;27073;51.128;4.220;2023-04-24T08:16:55;9.60;99.90
41324;DHT22;27073;51.128;4.220;2023-04-24T08:19:21;9.70;99.90
41324;DHT22;27073;51.128;4.220;2023-04-24T08:21:47;9.80;99.90
41324;DHT22;27073;51.128;4.220;2023-04-24T08:24:13;9.80;99.90
41324;DHT22;27073;51.128;4.220;2023-04-24T08:26:39;9.80;99.90
41324;DHT22;27073;51.128;4.220;2023-04-24T08:29:05;9.80;99.90
41324;DHT22;27073;51.128;4.220;2023-04-24T08:31:32;9.80;99.90
41324;DHT22;27073;51.128;4.220;2023-04-24T08:33:58;9.70;99.90
41324;DHT22;27073;51.128;4.220;2023-04-24T08:36:25;9.60;99.90
41324;DHT22;27073;51.128;4.220;2023-04-24T08:38:51;9.70;99.90
41324;DHT22;27073;51.128;4.220;2023-04-24T08:41:18;9.70;99.90
41324;DHT22;27073;51.128;4.220;2023-04-24T08:43:46;9.70;99.90
41324;DHT22;27073;51.128;4.220;2023-04-24T08:46:13;9.60;99.90
41324;DHT22;27073;51.128;4.220;2023-04-24T08:48:39;9.50;99.90
41324;DHT22;27073;51.128;4.220;2023-04-24T08:51:07;9.50;99.90
41324;DHT22;27073;51.128;4.220;2023-04-24T08:53:35;9.70;99.90
41324;DHT22;27073;51.128;4.220;2023-04-24T08:56:01;9.60;99.90
41324;DHT22;27073;51.128;4.220;2023-04-24T08:58:28;9.60;99.90
41324;DHT22;27073;51.128;4.220;2023-04-24T09:00:57;9.60;99.90
41324;DHT22;27073;51.128;4.220;2023-04-24T09:03:24;9.70;99.90
41324;DHT22;27073;51.128;4.220;2023-04-24T09:05:52;9.70;99.90
41324;DHT22;27073;51.128;4.220;2023-04-24T09:08:20;9.80;99.90
41324;DHT22;27073;51.128;4.220;2023-04-24T09:10:49;9.90;99.90
41324;DHT22;27073;51.128;4.220;2023-04-24T09:13:15;10.10;99.90
41324;DHT22;27073;51.128;4.220;2023-04-24T09:15:42;10.50;99.90
41324;DHT22;27073;51.128;4.220;2023-04-24T09:18:07;10.60;99.90
41324;DHT22;27073;51.128;4.220;2023-04-24T09:20:33;10.60;97.60
41324;DHT22;27073;51.128;4.220;2023-04-24T09:23:01;10.50;99.90
41324;DHT22;27073;51.128;4.220;2023-04-24T09:25:31;10.50;99.40
41324;DHT22;27073;51.128;4.220;2023-04-24T09:28:00;10.50;99.90
41324;DHT22;27073;51.128;4.220;2023-04-24T09:30:26;10.50;99.90
41324;DHT22;27073;51.128;4.220;2023-04-24T09:33:15;10.60;99.90
41324;DHT22;27073;51.128;4.220;2023-04-24T09:35:51;10.80;96.00
41324;DHT22;27073;51.128;4.220;2023-04-24T09:38:17;10.80;96.60
41324;DHT22;27073;51.128;4.220;2023-04-24T09:40:43;10.70;96.80
41324;DHT22;27073;51.128;4.220;2023-04-24T09:43:10;10.70;96.30
41324;DHT22;27073;51.128;4.220;2023-04-24T09:45:38;10.60;92.50
41324;DHT22;27073;51.128;4.220;2023-04-24T09:48:05;10.70;95.60
41324;DHT22;27073;51.128;4.220;2023-04-24T09:50:32;10.80;93.70
41324;DHT22;27073;51.128;4.220;2023-04-24T09:53:02;10.70;92.80
41324;DHT22;27073;51.128;4.220;2023-04-24T09:55:28;10.60;90.10
41324;DHT22;27073;51.128;4.220;2023-04-24T09:57:58;10.40;93.30
41324;DHT22;27073;51.128;4.220;2023-04-24T10:00:30;10.40;93.00
41324;DHT22;27073;51.128;4.220;2023-04-24T10:05:30;10.50;92.80
41324;DHT22;27073;51.128;4.220;2023-04-24T10:07:59;10.60;92.80
41324;DHT22;27073;51.128;4.220;2023-04-24T10:10:25;10.60;81.40
41324;DHT22;27073;51.128;4.220;2023-04-24T10:12:52;10.70;88.70
41324;DHT22;27073;51.128;4.220;2023-04-24T10:15:18;10.70;89.00
41324;DHT22;27073;51.128;4.220;2023-04-24T10:17:50;10.60;81.40
41324;DHT22;27073;51.128;4.220;2023-04-24T10:20:23;10.50;80.00
41324;DHT22;27073;51.128;4.220;2023-04-24T10:22:51;10.50;83.70
41324;DHT22;27073;51.128;4.220;2023-04-24T10:25:24;10.40;90.40
41324;DHT22;27073;51.128;4.220;2023-04-24T10:27:51;10.60;91.30
41324;DHT22;27073;51.128;4.220;2023-04-24T10:30:18;10.50;87.40
41324;DHT22;27073;51.128;4.220;2023-04-24T10:32:44;10.60;89.70
41324;DHT22;27073;51.128;4.220;2023-04-24T10:35:12;10.80;83.90
41324;DHT22;27073;51.128;4.220;2023-04-24T10:37:48;10.90;81.20
41324;DHT22;27073;51.128;4.220;2023-04-24T10:40:18;11.00;86.30
41324;DHT22;27073;51.128;4.220;2023-04-24T10:42:47;11.00;89.90
41324;DHT22;27073;51.128;4.220;2023-04-24T10:45:18;10.90;90.20
41324;DHT22;27073;51.128;4.220;2023-04-24T10:48:12;10.90;87.80
41324;DHT22;27073;51.128;4.220;2023-04-24T10:50:44;11.00;90.40
41324;DHT22;27073;51.128;4.220;2023-04-24T10:53:22;10.80;88.00
41324;DHT22;27073;51.128;4.220;2023-04-24T10:56:07;10.90;90.50
41324;DHT22;27073;51.128;4.220;2023-04-24T10:58:41;10.90;90.50
41324;DHT22;27073;51.128;4.220;2023-04-24T11:01:27;10.90;81.50
41324;DHT22;27073;51.128;4.220;2023-04-24T11:04:01;10.90;85.80
41324;DHT22;27073;51.128;4.220;2023-04-24T11:06:30;11.10;79.80
41324;DHT22;27073;51.128;4.220;2023-04-24T11:09:08;11.30;78.80
41324;DHT22;27073;51.128;4.220;2023-04-24T11:11:35;11.30;82.40
41324;DHT22;27073;51.128;4.220;2023-04-24T11:14:04;11.60;74.50
41324;DHT22;27073;51.128;4.220;2023-04-24T11:16:42;11.70;74.70
41324;DHT22;27073;51.128;4.220;2023-04-24T11:21:49;11.60;61.00
41324;DHT22;27073;51.128;4.220;2023-04-24T11:24:39;11.30;76.00
41324;DHT22;27073;51.128;4.220;2023-04-24T11:27:19;11.30;78.40
41324;DHT22;27073;51.128;4.220;2023-04-24T11:32:30;11.40;71.00
41324;DHT22;27073;51.128;4.220;2023-04-24T11:35:04;11.20;52.00
41324;DHT22;27073;51.128;4.220;2023-04-24T11:37:41;11.40;61.10
41324;DHT22;27073;51.128;4.220;2023-04-24T11:40:09;11.40;60.50
41324;DHT22;27073;51.128;4.220;2023-04-24T11:42:46;11.50;52.40
41324;DHT22;27073;51.128;4.220;2023-04-24T11:45:26;11.90;60.10
41324;DHT22;27073;51.128;4.220;2023-04-24T11:47:52;11.90;57.90
41324;DHT22;27073;51.128;4.220;2023-04-24T11:50:20;11.90;45.60
41324;DHT22;27073;51.128;4.220;2023-04-24T11:52:48;12.10;60.00
41324;DHT22;27073;51.128;4.220;2023-04-24T11:57:39;12.50;38.80
41324;DHT22;27073;51.128;4.220;2023-04-24T12:00:15;12.00;35.70
41324;DHT22;27073;51.128;4.220;2023-04-24T12:02:42;12.00;45.20
41324;DHT22;27073;51.128;4.220;2023-04-24T12:05:08;11.80;46.60
41324;DHT22;27073;51.128;4.220;2023-04-24T12:07:41;11.70;43.40
41324;DHT22;27073;51.128;4.220;2023-04-24T12:10:10;11.60;41.10
41324;DHT22;27073;51.128;4.220;2023-04-24T12:12:36;11.80;44.20
41324;DHT22;27073;51.128;4.220;2023-04-24T12:15:06;11.90;43.20
41324;DHT22;27073;51.128;4.220;2023-04-24T12:17:32;11.90;38.50
41324;DHT22;27073;51.128;4.220;2023-04-24T12:20:03;11.90;35.10
41324;DHT22;27073;51.128;4.220;2023-04-24T12:25:18;12.00;27.70
41324;DHT22;27073;51.128;4.220;2023-04-24T12:27:45;11.90;28.10
41324;DHT22;27073;51.128;4.220;2023-04-24T12:30:13;11.90;26.70
41324;DHT22;27073;51.128;4.220;2023-04-24T12:32:47;12.10;17.00
41324;DHT22;27073;51.128;4.220;2023-04-24T12:35:14;12.00;14.40
41324;DHT22;27073;51.128;4.220;2023-04-24T12:37:44;12.00;20.50
41324;DHT22;27073;51.128;4.220;2023-04-24T12:40:11;12.20;7.00
41324;DHT22;27073;51.128;4.220;2023-04-24T12:42:45;12.50;7.90
41324;DHT22;27073;51.128;4.220;2023-04-24T12:45:12;12.70;5.90
41324;DHT22;27073;51.128;4.220;2023-04-24T12:47:39;13.20;8.50
41324;DHT22;27073;51.128;4.220;2023-04-24T12:50:09;13.70;7.20
41324;DHT22;27073;51.128;4.220;2023-04-24T12:52:36;13.50;1.00
41324;DHT22;27073;51.128;4.220;2023-04-24T12:55:02;13.10;5.80
41324;DHT22;27073;51.128;4.220;2023-04-24T12:57:29;12.70;14.90
41324;DHT22;27073;51.128;4.220;2023-04-24T12:59:56;12.70;24.30
41324;DHT22;27073;51.128;4.220;2023-04-24T13:02:23;12.50;22.80
41324;DHT22;27073;51.128;4.220;2023-04-24T13:04:50;12.30;22.30
41324;DHT22;27073;51.128;4.220;2023-04-24T13:07:16;12.40;19.10
41324;DHT22;27073;51.128;4.220;2023-04-24T13:09:42;12.30;6.00
41324;DHT22;27073;51.128;4.220;2023-04-24T13:12:09;12.10;17.30
41324;DHT22;27073;51.128;4.220;2023-04-24T13:14:36;12.10;18.80
41324;DHT22;27073;51.128;4.220;2023-04-24T13:17:02;12.20;20.90
41324;DHT22;27073;51.128;4.220;2023-04-24T13:19:28;12.40;1.00
41324;DHT22;27073;51.128;4.220;2023-04-24T13:21:56;12.60;1.00
41324;DHT22;27073;51.128;4.220;2023-04-24T13:24:26;13.00;1.00
41324;DHT22;27073;51.128;4.220;2023-04-24T13:26:52;13.20;1.00
41324;DHT22;27073;51.128;4.220;2023-04-24T13:29:18;13.30;1.00
41324;DHT22;27073;51.128;4.220;2023-04-24T13:31:44;13.20;99.90
41324;DHT22;27073;51.128;4.220;2023-04-24T13:34:10;12.90;1.00
41324;DHT22;27073;51.128;4.220;2023-04-24T13:36:36;13.20;99.90
41324;DHT22;27073;51.128;4.220;2023-04-24T13:39:02;13.50;1.00
41324;DHT22;27073;51.128;4.220;2023-04-24T13:41:30;13.70;99.90
41324;DHT22;27073;51.128;4.220;2023-04-24T13:43:56;13.90;99.90
41324;DHT22;27073;51.128;4.220;2023-04-24T13:46:22;14.20;99.90
41324;DHT22;27073;51.128;4.220;2023-04-24T13:48:47;13.80;99.90
41324;DHT22;27073;51.128;4.220;2023-04-24T13:51:13;13.40;99.90
41324;DHT22;27073;51.128;4.220;2023-04-24T13:53:39;13.40;1.00
41324;DHT22;27073;51.128;4.220;2023-04-24T13:56:05;13.30;1.00
41324;DHT22;27073;51.128;4.220;2023-04-24T13:58:31;13.50;1.00
41324;DHT22;27073;51.128;4.220;2023-04-24T14:00:58;13.70;1.00
41324;DHT22;27073;51.128;4.220;2023-04-24T14:03:23;13.90;99.90
41324;DHT22;27073;51.128;4.220;2023-04-24T14:05:49;14.00;99.90
41324;DHT22;27073;51.128;4.220;2023-04-24T14:08:15;13.80;99.90
41324;DHT22;27073;51.128;4.220;2023-04-24T14:10:42;13.70;99.90
41324;DHT22;27073;51.128;4.220;2023-04-24T14:13:08;14.30;99.90
41324;DHT22;27073;51.128;4.220;2023-04-24T14:15:35;14.60;99.90
41324;DHT22;27073;51.128;4.220;2023-04-24T14:18:01;14.50;99.90
41324;DHT22;27073;51.128;4.220;2023-04-24T14:20:27;14.20;99.90
41324;DHT22;27073;51.128;4.220;2023-04-24T14:22:53;15.00;99.90
41324;DHT22;27073;51.128;4.220;2023-04-24T14:25:18;14.80;99.90
41324;DHT22;27073;51.128;4.220;2023-04-24T14:27:44;15.40;99.90
41324;DHT22;27073;51.128;4.220;2023-04-24T14:30:12;15.90;28.70
41324;DHT22;27073;51.128;4.220;2023-04-24T14:32:38;15.80;40.60
41324;DHT22;27073;51.128;4.220;2023-04-24T14:35:05;14.90;1.00
41324;DHT22;27073;51.128;4.220;2023-04-24T14:37:32;14.60;99.90
41324;DHT22;27073;51.128;4.220;2023-04-24T14:39:58;14.60;99.90
41324;DHT22;27073;51.128;4.220;2023-04-24T14:42:23;15.20;99.90
41324;DHT22;27073;51.128;4.220;2023-04-24T14:44:49;16.80;99.90
41324;DHT22;27073;51.128;4.220;2023-04-24T14:47:16;18.00;20.00
41324;DHT22;27073;51.128;4.220;2023-04-24T14:49:43;17.70;99.90
41324;DHT22;27073;51.128;4.220;2023-04-24T14:52:10;17.50;98.40
41324;DHT22;27073;51.128;4.220;2023-04-24T14:54:36;17.80;99.90
41324;DHT22;27073;51.128;4.220;2023-04-24T14:57:02;19.50;1.00
41324;DHT22;27073;51.128;4.220;2023-04-24T14:59:28;17.40;99.90
41324;DHT22;27073;51.128;4.220;2023-04-24T15:01:54;16.50;99.90
41324;DHT22;27073;51.128;4.220;2023-04-24T15:04:27;16.70;99.90
41324;DHT22;27073;51.128;4.220;2023-04-24T15:06:53;17.20;1.00
41324;DHT22;27073;51.128;4.220;2023-04-24T15:09:21;17.40;99.90
41324;DHT22;27073;51.128;4.220;2023-04-24T15:11:47;16.50;99.90
41324;DHT22;27073;51.128;4.220;2023-04-24T15:14:14;16.00;99.90
41324;DHT22;27073;51.128;4.220;2023-04-24T15:16:40;15.40;99.90
41324;DHT22;27073;51.128;4.220;2023-04-24T15:19:06;14.70;99.90
41324;DHT22;27073;51.128;4.220;2023-04-24T15:21:31;14.40;99.90
41324;DHT22;27073;51.128;4.220;2023-04-24T15:23:57;14.60;99.90
41324;DHT22;27073;51.128;4.220;2023-04-24T15:26:24;14.40;99.90
41324;DHT22;27073;51.128;4.220;2023-04-24T15:28:51;14.40;99.90
41324;DHT22;27073;51.128;4.220;2023-04-24T15:31:18;14.30;99.90
41324;DHT22;27073;51.128;4.220;2023-04-24T15:33:44;14.10;99.90
41324;DHT22;27073;51.128;4.220;2023-04-24T15:36:10;13.90;99.90
41324;DHT22;27073;51.128;4.220;2023-04-24T15:38:36;13.60;99.90
41324;DHT22;27073;51.128;4.220;2023-04-24T15:41:02;13.40;99.90
41324;DHT22;27073;51.128;4.220;2023-04-24T15:43:28;13.50;1.00
41324;DHT22;27073;51.128;4.220;2023-04-24T15:46:00;13.60;99.90
41324;DHT22;27073;51.128;4.220;2023-04-24T15:48:27;13.50;99.90
41324;DHT22;27073;51.128;4.220;2023-04-24T15:50:53;13.90;99.90
41324;DHT22;27073;51.128;4.220;2023-04-24T15:53:19;13.90;99.90
41324;DHT22;27073;51.128;4.220;2023-04-24T15:55:51;13.60;99.90